This is the latest recevied weather packets stored in our database for station/object URMM. If no packets are shown the sender has not sent any weather packets the latest 10 day(s).
| Time | Temp. | Humidity | Pressure | Rain* | Wind** | Luminosity | Snow |
|---|---|---|---|---|---|---|---|
| 1777663855 | 5.56° C | 81% | 1015 hPa | - | - | - | - |
| 1777662052 | 5.56° C | 81% | 1015 hPa | - | - | - | - |
| 1777660255 | 7.78° C | 70% | 1016 hPa | - | - | - | - |
| 1777658452 | 7.78° C | 70% | 1015 hPa | - | - | - | - |
| 1777656652 | 7.78° C | 75% | 1015 hPa | - | - | - | - |
| 1777654854 | 8.89° C | 70% | 1015 hPa | - | - | - | - |
| 1777653054 | 8.89° C | 75% | 1015 hPa | - | - | - | - |
| 1777651254 | 8.89° C | 75% | 1014 hPa | - | - | - | - |
| 1777649452 | 8.89° C | 75% | 1015 hPa | - | - | - | - |
| 1777647652 | 10° C | 71% | 1015 hPa | - | - | - | - |
| 1777645853 | 11.67° C | 66% | 1014 hPa | - | - | - | - |
| 1777644053 | 11.67° C | 66% | 1014 hPa | - | - | - | - |
| 1777642254 | 12.78° C | 62% | 1014 hPa | - | - | - | - |
| 1777640454 | 12.78° C | 62% | 1014 hPa | - | - | - | - |
| 1777638652 | 12.78° C | 66% | 1014 hPa | - | - | - | - |
| 1777636854 | 12.78° C | 62% | 1014 hPa | - | - | - | - |
| 1777635053 | 12.78° C | 62% | 1014 hPa | - | - | - | - |
| 1777633252 | 12.78° C | 62% | 1014 hPa | - | - | - | - |
| 1777631452 | 11.67° C | 66% | 1015 hPa | - | - | - | - |
| 1777629652 | 11.67° C | 66% | 1015 hPa | - | - | - | - |
| 1777626054 | 10° C | 76% | 1015 hPa | - | - | - | - |
| 1777624253 | 10° C | 76% | 1016 hPa | - | - | - | - |
| 1777622453 | 8.89° C | 75% | 1016 hPa | - | - | - | - |
| 1777620653 | 7.78° C | 81% | 1017 hPa | - | - | - | - |
| 1777618853 | 7.78° C | 75% | 1017 hPa | - | - | - | - |
* Rain since midnight (hover to see other rain measurements)
** Current wind speed in m/s (hover to see current wind gust speed)